sensor_id;sensor_type;location;lat;lon;timestamp;pressure;altitude;pressure_sealevel;temperature
28803;BMP280;15949;55.656;37.422;2024-02-21T00:01:48;100227.59;;;-10.07
28803;BMP280;15949;55.656;37.422;2024-02-21T00:06:54;100218.81;;;-10.11
28803;BMP280;15949;55.656;37.422;2024-02-21T00:11:59;100217.22;;;-10.12
28803;BMP280;15949;55.656;37.422;2024-02-21T00:17:06;100218.81;;;-10.11
28803;BMP280;15949;55.656;37.422;2024-02-21T00:22:13;100212.81;;;-10.10
28803;BMP280;15949;55.656;37.422;2024-02-21T00:27:19;100207.78;;;-10.10
28803;BMP280;15949;55.656;37.422;2024-02-21T00:32:24;100208.66;;;-10.03
28803;BMP280;15949;55.656;37.422;2024-02-21T00:37:31;100202.78;;;-9.88
28803;BMP280;15949;55.656;37.422;2024-02-21T00:42:37;100207.69;;;-9.71
28803;BMP280;15949;55.656;37.422;2024-02-21T00:47:42;100196.34;;;-9.53
28803;BMP280;15949;55.656;37.422;2024-02-21T00:52:48;100197.09;;;-9.44
28803;BMP280;15949;55.656;37.422;2024-02-21T00:57:54;100183.28;;;-9.33
28803;BMP280;15949;55.656;37.422;2024-02-21T01:02:59;100183.81;;;-9.23
28803;BMP280;15949;55.656;37.422;2024-02-21T01:08:05;100180.59;;;-9.17
28803;BMP280;15949;55.656;37.422;2024-02-21T01:13:11;100176.63;;;-9.12
28803;BMP280;15949;55.656;37.422;2024-02-21T01:18:16;100170.25;;;-9.08
28803;BMP280;15949;55.656;37.422;2024-02-21T01:23:23;100162.78;;;-9.01
28803;BMP280;15949;55.656;37.422;2024-02-21T01:28:28;100154.34;;;-8.93
28803;BMP280;15949;55.656;37.422;2024-02-21T01:33:34;100154.16;;;-8.92
28803;BMP280;15949;55.656;37.422;2024-02-21T01:38:44;100151.03;;;-8.79
28803;BMP280;15949;55.656;37.422;2024-02-21T01:43:49;100141.63;;;-8.71
28803;BMP280;15949;55.656;37.422;2024-02-21T01:48:56;100133.66;;;-8.68
28803;BMP280;15949;55.656;37.422;2024-02-21T01:54:02;100136.97;;;-8.67
28803;BMP280;15949;55.656;37.422;2024-02-21T01:59:07;100128.84;;;-8.63
28803;BMP280;15949;55.656;37.422;2024-02-21T02:04:13;100129.63;;;-8.47
28803;BMP280;15949;55.656;37.422;2024-02-21T02:09:19;100121.94;;;-8.39
28803;BMP280;15949;55.656;37.422;2024-02-21T02:14:25;100120.44;;;-8.34
28803;BMP280;15949;55.656;37.422;2024-02-21T02:19:31;100106.91;;;-8.26
28803;BMP280;15949;55.656;37.422;2024-02-21T02:24:36;100116.47;;;-8.21
28803;BMP280;15949;55.656;37.422;2024-02-21T02:29:42;100119.22;;;-8.16
28803;BMP280;15949;55.656;37.422;2024-02-21T02:34:47;100121.53;;;-8.15
28803;BMP280;15949;55.656;37.422;2024-02-21T02:39:53;100129.03;;;-8.07
28803;BMP280;15949;55.656;37.422;2024-02-21T02:44:58;100127.94;;;-7.98
28803;BMP280;15949;55.656;37.422;2024-02-21T02:50:04;100132.00;;;-7.97
28803;BMP280;15949;55.656;37.422;2024-02-21T02:55:10;100127.81;;;-7.90
28803;BMP280;15949;55.656;37.422;2024-02-21T03:00:16;100130.94;;;-7.88
28803;BMP280;15949;55.656;37.422;2024-02-21T03:05:22;100119.28;;;-7.82
28803;BMP280;15949;55.656;37.422;2024-02-21T03:10:27;100120.34;;;-7.76
28803;BMP280;15949;55.656;37.422;2024-02-21T03:15:33;100119.78;;;-7.65
28803;BMP280;15949;55.656;37.422;2024-02-21T03:20:39;100118.84;;;-7.64
28803;BMP280;15949;55.656;37.422;2024-02-21T03:25:44;100112.03;;;-7.64
28803;BMP280;15949;55.656;37.422;2024-02-21T03:30:50;100117.94;;;-7.57
28803;BMP280;15949;55.656;37.422;2024-02-21T03:35:55;100107.63;;;-7.55
28803;BMP280;15949;55.656;37.422;2024-02-21T03:41:01;100113.69;;;-7.50
28803;BMP280;15949;55.656;37.422;2024-02-21T03:46:07;100111.94;;;-7.49
28803;BMP280;15949;55.656;37.422;2024-02-21T03:51:12;100106.91;;;-7.43
28803;BMP280;15949;55.656;37.422;2024-02-21T03:56:19;100107.72;;;-7.42
28803;BMP280;15949;55.656;37.422;2024-02-21T04:01:24;100110.06;;;-7.40
28803;BMP280;15949;55.656;37.422;2024-02-21T04:06:30;100116.31;;;-7.36
28803;BMP280;15949;55.656;37.422;2024-02-21T04:11:35;100111.63;;;-7.39
28803;BMP280;15949;55.656;37.422;2024-02-21T04:16:41;100113.16;;;-7.38
28803;BMP280;15949;55.656;37.422;2024-02-21T04:21:46;100119.22;;;-7.33
28803;BMP280;15949;55.656;37.422;2024-02-21T04:26:52;100116.34;;;-7.30
28803;BMP280;15949;55.656;37.422;2024-02-21T04:31:58;100115.34;;;-7.29
28803;BMP280;15949;55.656;37.422;2024-02-21T04:37:03;100126.91;;;-7.20
28803;BMP280;15949;55.656;37.422;2024-02-21T04:42:09;100111.34;;;-7.17
28803;BMP280;15949;55.656;37.422;2024-02-21T04:47:15;100129.06;;;-7.17
28803;BMP280;15949;55.656;37.422;2024-02-21T04:52:20;100127.72;;;-7.13
28803;BMP280;15949;55.656;37.422;2024-02-21T04:57:26;100119.91;;;-7.11
28803;BMP280;15949;55.656;37.422;2024-02-21T05:02:31;100120.59;;;-7.03
28803;BMP280;15949;55.656;37.422;2024-02-21T05:07:37;100122.72;;;-6.99
28803;BMP280;15949;55.656;37.422;2024-02-21T05:12:43;100117.69;;;-6.86
28803;BMP280;15949;55.656;37.422;2024-02-21T05:17:48;100117.69;;;-6.86
28803;BMP280;15949;55.656;37.422;2024-02-21T05:22:54;100118.50;;;-6.79
28803;BMP280;15949;55.656;37.422;2024-02-21T05:27:59;100123.97;;;-6.69
28803;BMP280;15949;55.656;37.422;2024-02-21T05:33:07;100112.72;;;-6.53
28803;BMP280;15949;55.656;37.422;2024-02-21T05:38:12;100120.31;;;-6.47
28803;BMP280;15949;55.656;37.422;2024-02-21T05:43:18;100128.94;;;-6.41
28803;BMP280;15949;55.656;37.422;2024-02-21T05:48:24;100115.66;;;-6.24
28803;BMP280;15949;55.656;37.422;2024-02-21T05:53:29;100124.25;;;-6.25
28803;BMP280;15949;55.656;37.422;2024-02-21T05:58:35;100115.50;;;-6.15
28803;BMP280;15949;55.656;37.422;2024-02-21T06:03:41;100122.53;;;-6.04
28803;BMP280;15949;55.656;37.422;2024-02-21T06:08:46;100122.72;;;-5.86
28803;BMP280;15949;55.656;37.422;2024-02-21T06:13:52;100115.84;;;-5.79
28803;BMP280;15949;55.656;37.422;2024-02-21T06:18:57;100119.56;;;-5.75
28803;BMP280;15949;55.656;37.422;2024-02-21T06:24:03;100125.63;;;-5.63
28803;BMP280;15949;55.656;37.422;2024-02-21T06:29:09;100123.59;;;-5.48
28803;BMP280;15949;55.656;37.422;2024-02-21T06:34:15;100123.19;;;-5.31
28803;BMP280;15949;55.656;37.422;2024-02-21T06:39:20;100131.56;;;-5.24
28803;BMP280;15949;55.656;37.422;2024-02-21T06:44:28;100126.66;;;-5.26
28803;BMP280;15949;55.656;37.422;2024-02-21T06:49:34;100133.09;;;-5.17
28803;BMP280;15949;55.656;37.422;2024-02-21T06:54:39;100131.25;;;-5.03
28803;BMP280;15949;55.656;37.422;2024-02-21T06:59:45;100126.91;;;-4.90
28803;BMP280;15949;55.656;37.422;2024-02-21T07:04:51;100108.25;;;-4.77
28803;BMP280;15949;55.656;37.422;2024-02-21T07:09:56;100117.78;;;-4.66
28803;BMP280;15949;55.656;37.422;2024-02-21T07:15:02;100107.84;;;-4.42
28803;BMP280;15949;55.656;37.422;2024-02-21T07:20:08;100099.50;;;-4.25
28803;BMP280;15949;55.656;37.422;2024-02-21T07:25:14;100094.88;;;-4.34
28803;BMP280;15949;55.656;37.422;2024-02-21T07:30:19;100100.97;;;-4.67
28803;BMP280;15949;55.656;37.422;2024-02-21T07:35:25;100098.56;;;-4.86
28803;BMP280;15949;55.656;37.422;2024-02-21T07:40:31;100097.09;;;-4.76
28803;BMP280;15949;55.656;37.422;2024-02-21T07:45:36;100102.34;;;-4.71
28803;BMP280;15949;55.656;37.422;2024-02-21T07:50:43;100101.03;;;-4.80
28803;BMP280;15949;55.656;37.422;2024-02-21T07:55:49;100101.56;;;-4.71
28803;BMP280;15949;55.656;37.422;2024-02-21T08:00:54;100085.06;;;-4.56
28803;BMP280;15949;55.656;37.422;2024-02-21T08:06:00;100090.88;;;-4.49
28803;BMP280;15949;55.656;37.422;2024-02-21T08:11:06;100084.00;;;-4.41
28803;BMP280;15949;55.656;37.422;2024-02-21T08:16:11;100088.53;;;-4.25
28803;BMP280;15949;55.656;37.422;2024-02-21T08:21:17;100075.88;;;-3.89
28803;BMP280;15949;55.656;37.422;2024-02-21T08:26:23;100082.78;;;-3.78
28803;BMP280;15949;55.656;37.422;2024-02-21T08:31:28;100087.03;;;-3.90
28803;BMP280;15949;55.656;37.422;2024-02-21T08:36:36;100078.56;;;-3.66
28803;BMP280;15949;55.656;37.422;2024-02-21T08:41:42;100091.63;;;-3.44
28803;BMP280;15949;55.656;37.422;2024-02-21T08:46:48;100084.69;;;-3.07
28803;BMP280;15949;55.656;37.422;2024-02-21T08:51:53;100080.56;;;-2.78
28803;BMP280;15949;55.656;37.422;2024-02-21T08:56:59;100078.03;;;-2.66
28803;BMP280;15949;55.656;37.422;2024-02-21T09:02:05;100082.13;;;-2.65
28803;BMP280;15949;55.656;37.422;2024-02-21T09:07:12;100092.03;;;-2.57
28803;BMP280;15949;55.656;37.422;2024-02-21T09:12:18;100079.84;;;-2.44
28803;BMP280;15949;55.656;37.422;2024-02-21T09:17:23;100072.03;;;-2.26
28803;BMP280;15949;55.656;37.422;2024-02-21T09:22:30;100069.41;;;-2.42
28803;BMP280;15949;55.656;37.422;2024-02-21T09:27:38;100073.19;;;-2.45
28803;BMP280;15949;55.656;37.422;2024-02-21T09:32:43;100062.19;;;-2.45
28803;BMP280;15949;55.656;37.422;2024-02-21T09:37:49;100058.25;;;-2.25
28803;BMP280;15949;55.656;37.422;2024-02-21T09:43:05;100056.00;;;-1.98
28803;BMP280;15949;55.656;37.422;2024-02-21T09:48:28;100050.25;;;-2.05
28803;BMP280;15949;55.656;37.422;2024-02-21T09:53:37;100047.72;;;-2.05
28803;BMP280;15949;55.656;37.422;2024-02-21T09:58:43;100044.59;;;-2.07
28803;BMP280;15949;55.656;37.422;2024-02-21T10:03:48;100043.81;;;-1.96
28803;BMP280;15949;55.656;37.422;2024-02-21T10:08:54;100034.47;;;-2.02
28803;BMP280;15949;55.656;37.422;2024-02-21T10:14:04;100049.03;;;-2.14
28803;BMP280;15949;55.656;37.422;2024-02-21T10:19:19;100043.84;;;-2.19
28803;BMP280;15949;55.656;37.422;2024-02-21T10:24:28;100037.97;;;-2.31
28803;BMP280;15949;55.656;37.422;2024-02-21T10:29:34;100047.22;;;-2.42
28803;BMP280;15949;55.656;37.422;2024-02-21T10:34:41;100042.97;;;-2.36
28803;BMP280;15949;55.656;37.422;2024-02-21T10:39:47;100041.72;;;-2.34
28803;BMP280;15949;55.656;37.422;2024-02-21T10:44:53;100057.19;;;-2.40
28803;BMP280;15949;55.656;37.422;2024-02-21T10:50:04;100043.66;;;-2.64
28803;BMP280;15949;55.656;37.422;2024-02-21T10:55:20;100031.22;;;-2.84
28803;BMP280;15949;55.656;37.422;2024-02-21T11:00:28;100031.31;;;-2.79
28803;BMP280;15949;55.656;37.422;2024-02-21T11:05:35;100037.56;;;-2.63
28803;BMP280;15949;55.656;37.422;2024-02-21T11:10:45;100025.22;;;-2.78
28803;BMP280;15949;55.656;37.422;2024-02-21T11:15:51;100018.56;;;-3.02
28803;BMP280;15949;55.656;37.422;2024-02-21T11:20:56;100008.13;;;-3.00
28803;BMP280;15949;55.656;37.422;2024-02-21T11:26:09;100010.31;;;-3.04
28803;BMP280;15949;55.656;37.422;2024-02-21T11:31:15;100008.75;;;-3.05
28803;BMP280;15949;55.656;37.422;2024-02-21T11:36:25;100007.75;;;-3.04
28803;BMP280;15949;55.656;37.422;2024-02-21T11:41:31;100000.97;;;-3.10
28803;BMP280;15949;55.656;37.422;2024-02-21T11:46:36;99997.56;;;-3.16
28803;BMP280;15949;55.656;37.422;2024-02-21T11:51:42;99994.41;;;-3.29
28803;BMP280;15949;55.656;37.422;2024-02-21T11:56:47;99999.38;;;-3.34
28803;BMP280;15949;55.656;37.422;2024-02-21T12:01:53;99989.25;;;-3.52
28803;BMP280;15949;55.656;37.422;2024-02-21T12:06:59;99995.47;;;-3.48
28803;BMP280;15949;55.656;37.422;2024-02-21T12:12:05;99981.94;;;-3.49
28803;BMP280;15949;55.656;37.422;2024-02-21T12:17:12;99983.34;;;-3.65
28803;BMP280;15949;55.656;37.422;2024-02-21T12:22:20;99978.38;;;-3.78
28803;BMP280;15949;55.656;37.422;2024-02-21T12:27:26;99969.50;;;-3.87
28803;BMP280;15949;55.656;37.422;2024-02-21T12:32:32;99984.94;;;-4.00
28803;BMP280;15949;55.656;37.422;2024-02-21T12:37:37;99972.03;;;-4.05
28803;BMP280;15949;55.656;37.422;2024-02-21T12:42:46;99960.97;;;-4.11
28803;BMP280;15949;55.656;37.422;2024-02-21T12:47:52;99967.69;;;-4.16
28803;BMP280;15949;55.656;37.422;2024-02-21T12:52:58;99964.44;;;-4.23
28803;BMP280;15949;55.656;37.422;2024-02-21T12:58:04;99969.16;;;-4.27
28803;BMP280;15949;55.656;37.422;2024-02-21T13:03:12;99974.47;;;-4.47
28803;BMP280;15949;55.656;37.422;2024-02-21T13:08:19;99959.66;;;-4.56
28803;BMP280;15949;55.656;37.422;2024-02-21T13:13:26;99967.91;;;-4.61
28803;BMP280;15949;55.656;37.422;2024-02-21T13:18:32;99969.88;;;-4.63
28803;BMP280;15949;55.656;37.422;2024-02-21T13:23:38;99973.03;;;-4.67
28803;BMP280;15949;55.656;37.422;2024-02-21T13:28:43;99972.69;;;-4.71
28803;BMP280;15949;55.656;37.422;2024-02-21T13:33:50;99974.25;;;-4.70
28803;BMP280;15949;55.656;37.422;2024-02-21T13:38:55;99973.53;;;-4.77
28803;BMP280;15949;55.656;37.422;2024-02-21T13:44:01;99973.13;;;-4.74
28803;BMP280;15949;55.656;37.422;2024-02-21T13:49:06;99979.50;;;-4.90
28803;BMP280;15949;55.656;37.422;2024-02-21T13:54:12;99976.75;;;-4.88
28803;BMP280;15949;55.656;37.422;2024-02-21T13:59:22;99983.81;;;-4.90
28803;BMP280;15949;55.656;37.422;2024-02-21T14:04:27;99981.06;;;-4.88
28803;BMP280;15949;55.656;37.422;2024-02-21T14:09:35;99985.78;;;-4.92
28803;BMP280;15949;55.656;37.422;2024-02-21T14:14:41;99977.75;;;-4.89
28803;BMP280;15949;55.656;37.422;2024-02-21T14:19:48;99986.78;;;-4.93
28803;BMP280;15949;55.656;37.422;2024-02-21T14:24:53;99983.09;;;-4.97
28803;BMP280;15949;55.656;37.422;2024-02-21T14:29:59;99985.78;;;-4.92
28803;BMP280;15949;55.656;37.422;2024-02-21T14:35:05;99976.44;;;-4.98
28803;BMP280;15949;55.656;37.422;2024-02-21T14:40:11;99977.09;;;-5.09
28803;BMP280;15949;55.656;37.422;2024-02-21T14:45:17;99971.00;;;-5.08
28803;BMP280;15949;55.656;37.422;2024-02-21T14:50:23;99971.09;;;-5.21
28803;BMP280;15949;55.656;37.422;2024-02-21T14:55:29;99980.72;;;-5.23
28803;BMP280;15949;55.656;37.422;2024-02-21T15:00:34;99986.41;;;-5.28
28803;BMP280;15949;55.656;37.422;2024-02-21T15:05:40;99984.84;;;-5.29
28803;BMP280;15949;55.656;37.422;2024-02-21T15:10:46;99984.06;;;-5.29
28803;BMP280;15949;55.656;37.422;2024-02-21T15:15:51;99977.81;;;-5.34
28803;BMP280;15949;55.656;37.422;2024-02-21T15:20:57;99988.94;;;-5.35
28803;BMP280;15949;55.656;37.422;2024-02-21T15:26:03;99978.78;;;-5.35
28803;BMP280;15949;55.656;37.422;2024-02-21T15:31:09;99974.94;;;-5.44
28803;BMP280;15949;55.656;37.422;2024-02-21T15:36:14;99978.09;;;-5.48
28803;BMP280;15949;55.656;37.422;2024-02-21T15:41:20;99972.03;;;-5.47
28803;BMP280;15949;55.656;37.422;2024-02-21T15:46:26;99981.03;;;-5.51
28803;BMP280;15949;55.656;37.422;2024-02-21T15:51:32;99972.09;;;-5.54
28803;BMP280;15949;55.656;37.422;2024-02-21T15:56:39;99973.69;;;-5.59
28803;BMP280;15949;55.656;37.422;2024-02-21T16:01:45;99969.94;;;-5.57
28803;BMP280;15949;55.656;37.422;2024-02-21T16:06:51;99962.34;;;-5.63
28803;BMP280;15949;55.656;37.422;2024-02-21T16:11:57;99961.19;;;-5.61
28803;BMP280;15949;55.656;37.422;2024-02-21T16:17:03;99962.75;;;-5.60
28803;BMP280;15949;55.656;37.422;2024-02-21T16:22:10;99966.25;;;-5.61
28803;BMP280;15949;55.656;37.422;2024-02-21T16:27:16;99953.00;;;-5.63
28803;BMP280;15949;55.656;37.422;2024-02-21T16:32:21;99953.34;;;-5.66
28803;BMP280;15949;55.656;37.422;2024-02-21T16:37:27;99945.94;;;-5.61
28803;BMP280;15949;55.656;37.422;2024-02-21T16:42:33;99947.13;;;-5.63
28803;BMP280;15949;55.656;37.422;2024-02-21T16:47:38;99946.53;;;-5.59
28803;BMP280;15949;55.656;37.422;2024-02-21T16:52:44;99943.00;;;-5.58
28803;BMP280;15949;55.656;37.422;2024-02-21T16:57:50;99940.09;;;-5.61
28803;BMP280;15949;55.656;37.422;2024-02-21T17:02:56;99939.88;;;-5.60
28803;BMP280;15949;55.656;37.422;2024-02-21T17:08:01;99951.03;;;-5.61
28803;BMP280;15949;55.656;37.422;2024-02-21T17:13:08;99945.34;;;-5.56
28803;BMP280;15949;55.656;37.422;2024-02-21T17:18:14;99932.28;;;-5.60
28803;BMP280;15949;55.656;37.422;2024-02-21T17:23:20;99929.16;;;-5.62
28803;BMP280;15949;55.656;37.422;2024-02-21T17:28:25;99953.75;;;-5.62
28803;BMP280;15949;55.656;37.422;2024-02-21T17:33:31;99942.44;;;-5.66
28803;BMP280;15949;55.656;37.422;2024-02-21T17:38:36;99944.56;;;-5.63
28803;BMP280;15949;55.656;37.422;2024-02-21T17:43:42;99936.97;;;-5.70
28803;BMP280;15949;55.656;37.422;2024-02-21T17:48:50;99931.91;;;-5.70
28803;BMP280;15949;55.656;37.422;2024-02-21T17:53:55;99927.41;;;-5.68
28803;BMP280;15949;55.656;37.422;2024-02-21T17:59:01;99927.63;;;-5.69
28803;BMP280;15949;55.656;37.422;2024-02-21T18:04:07;99918.06;;;-5.67
28803;BMP280;15949;55.656;37.422;2024-02-21T18:09:13;99920.38;;;-5.66
28803;BMP280;15949;55.656;37.422;2024-02-21T18:14:19;99917.81;;;-5.66
28803;BMP280;15949;55.656;37.422;2024-02-21T18:19:24;99919.78;;;-5.61
28803;BMP280;15949;55.656;37.422;2024-02-21T18:24:30;99902.22;;;-5.63
28803;BMP280;15949;55.656;37.422;2024-02-21T18:29:36;99908.84;;;-5.62
28803;BMP280;15949;55.656;37.422;2024-02-21T18:34:43;99905.69;;;-5.57
28803;BMP280;15949;55.656;37.422;2024-02-21T18:39:48;99904.91;;;-5.58
28803;BMP280;15949;55.656;37.422;2024-02-21T18:44:54;99905.34;;;-5.61
28803;BMP280;15949;55.656;37.422;2024-02-21T18:50:01;99897.91;;;-5.62
28803;BMP280;15949;55.656;37.422;2024-02-21T18:55:07;99896.16;;;-5.62
28803;BMP280;15949;55.656;37.422;2024-02-21T19:00:15;99898.31;;;-5.59
28803;BMP280;15949;55.656;37.422;2024-02-21T19:05:27;99893.59;;;-5.55
28803;BMP280;15949;55.656;37.422;2024-02-21T19:10:34;99894.00;;;-5.58
28803;BMP280;15949;55.656;37.422;2024-02-21T19:15:39;99891.28;;;-5.63
28803;BMP280;15949;55.656;37.422;2024-02-21T19:20:48;99885.81;;;-5.67
28803;BMP280;15949;55.656;37.422;2024-02-21T19:25:53;99888.94;;;-5.65
28803;BMP280;15949;55.656;37.422;2024-02-21T19:30:59;99880.91;;;-5.62
28803;BMP280;15949;55.656;37.422;2024-02-21T19:36:05;99883.44;;;-5.55
28803;BMP280;15949;55.656;37.422;2024-02-21T19:41:18;99873.19;;;-5.49
28803;BMP280;15949;55.656;37.422;2024-02-21T19:46:23;99872.84;;;-5.52
28803;BMP280;15949;55.656;37.422;2024-02-21T19:51:30;99880.31;;;-5.57
28803;BMP280;15949;55.656;37.422;2024-02-21T19:56:36;99880.09;;;-5.56
28803;BMP280;15949;55.656;37.422;2024-02-21T20:01:42;99867.56;;;-5.51
28803;BMP280;15949;55.656;37.422;2024-02-21T20:06:48;99868.13;;;-5.49
28803;BMP280;15949;55.656;37.422;2024-02-21T20:11:55;99867.00;;;-5.53
28803;BMP280;15949;55.656;37.422;2024-02-21T20:17:01;99861.91;;;-5.53
28803;BMP280;15949;55.656;37.422;2024-02-21T20:22:07;99859.97;;;-5.51
28803;BMP280;15949;55.656;37.422;2024-02-21T20:27:13;99861.91;;;-5.53
28803;BMP280;15949;55.656;37.422;2024-02-21T20:32:19;99857.16;;;-5.43
28803;BMP280;15949;55.656;37.422;2024-02-21T20:37:26;99865.56;;;-5.42
28803;BMP280;15949;55.656;37.422;2024-02-21T20:42:33;99853.41;;;-5.40
28803;BMP280;15949;55.656;37.422;2024-02-21T20:47:40;99847.50;;;-5.34
28803;BMP280;15949;55.656;37.422;2024-02-21T20:52:46;99849.69;;;-5.38
28803;BMP280;15949;55.656;37.422;2024-02-21T20:57:52;99849.72;;;-5.44
28803;BMP280;15949;55.656;37.422;2024-02-21T21:02:58;99843.88;;;-5.45
28803;BMP280;15949;55.656;37.422;2024-02-21T21:08:04;99848.19;;;-5.45
28803;BMP280;15949;55.656;37.422;2024-02-21T21:13:10;99851.66;;;-5.40
28803;BMP280;15949;55.656;37.422;2024-02-21T21:18:16;99844.19;;;-5.35
28803;BMP280;15949;55.656;37.422;2024-02-21T21:23:22;99837.53;;;-5.36
28803;BMP280;15949;55.656;37.422;2024-02-21T21:28:28;99825.81;;;-5.30
28803;BMP280;15949;55.656;37.422;2024-02-21T21:33:34;99844.94;;;-5.27
28803;BMP280;15949;55.656;37.422;2024-02-21T21:38:40;99837.09;;;-5.26
28803;BMP280;15949;55.656;37.422;2024-02-21T21:43:46;99833.59;;;-5.25
28803;BMP280;15949;55.656;37.422;2024-02-21T21:48:52;99832.59;;;-5.24
28803;BMP280;15949;55.656;37.422;2024-02-21T21:53:58;99828.72;;;-5.26
28803;BMP280;15949;55.656;37.422;2024-02-21T21:59:03;99834.16;;;-5.23
28803;BMP280;15949;55.656;37.422;2024-02-21T22:04:09;99824.63;;;-5.27
28803;BMP280;15949;55.656;37.422;2024-02-21T22:09:15;99830.25;;;-5.25
28803;BMP280;15949;55.656;37.422;2024-02-21T22:14:21;99825.78;;;-5.23
28803;BMP280;15949;55.656;37.422;2024-02-21T22:19:26;99819.13;;;-5.24
28803;BMP280;15949;55.656;37.422;2024-02-21T22:24:32;99811.66;;;-5.19
28803;BMP280;15949;55.656;37.422;2024-02-21T22:29:38;99816.31;;;-5.16
28803;BMP280;15949;55.656;37.422;2024-02-21T22:34:46;99808.13;;;-5.18
28803;BMP280;15949;55.656;37.422;2024-02-21T22:39:52;99801.66;;;-5.14
28803;BMP280;15949;55.656;37.422;2024-02-21T22:44:58;99805.16;;;-5.15
28803;BMP280;15949;55.656;37.422;2024-02-21T22:50:04;99798.38;;;-5.21
28803;BMP280;15949;55.656;37.422;2024-02-21T22:55:10;99796.41;;;-5.19
28803;BMP280;15949;55.656;37.422;2024-02-21T23:00:16;99790.50;;;-5.13
28803;BMP280;15949;55.656;37.422;2024-02-21T23:05:22;99786.41;;;-5.14
28803;BMP280;15949;55.656;37.422;2024-02-21T23:10:31;99787.25;;;-5.20
28803;BMP280;15949;55.656;37.422;2024-02-21T23:15:38;99782.75;;;-5.18
28803;BMP280;15949;55.656;37.422;2024-02-21T23:20:44;99778.22;;;-5.16
28803;BMP280;15949;55.656;37.422;2024-02-21T23:25:49;99772.16;;;-5.15
28803;BMP280;15949;55.656;37.422;2024-02-21T23:30:55;99781.72;;;-5.17
28803;BMP280;15949;55.656;37.422;2024-02-21T23:36:04;99775.25;;;-5.13
28803;BMP280;15949;55.656;37.422;2024-02-21T23:41:14;99777.22;;;-5.15
28803;BMP280;15949;55.656;37.422;2024-02-21T23:46:20;99778.34;;;-5.11
28803;BMP280;15949;55.656;37.422;2024-02-21T23:51:26;99769.53;;;-5.09
28803;BMP280;15949;55.656;37.422;2024-02-21T23:56:32;99759.59;;;-5.10
